sensor_id;sensor_type;location;lat;lon;timestamp;P1;durP1;ratioP1;P2;durP2;ratioP2
63095;SDS011;49184;55.596;37.770;2022-12-28T00:01:13;16.33;;;7.10;;
63095;SDS011;49184;55.596;37.770;2022-12-28T00:03:41;13.25;;;6.10;;
63095;SDS011;49184;55.596;37.770;2022-12-28T00:06:08;14.93;;;7.72;;
63095;SDS011;49184;55.596;37.770;2022-12-28T00:08:36;11.88;;;7.03;;
63095;SDS011;49184;55.596;37.770;2022-12-28T00:11:06;15.73;;;7.05;;
63095;SDS011;49184;55.596;37.770;2022-12-28T00:13:39;14.48;;;7.13;;
63095;SDS011;49184;55.596;37.770;2022-12-28T00:16:10;11.73;;;6.68;;
63095;SDS011;49184;55.596;37.770;2022-12-28T00:18:43;14.50;;;6.80;;
63095;SDS011;49184;55.596;37.770;2022-12-28T00:21:10;13.57;;;6.72;;
63095;SDS011;49184;55.596;37.770;2022-12-28T00:23:37;15.98;;;6.72;;
63095;SDS011;49184;55.596;37.770;2022-12-28T00:26:08;16.50;;;7.43;;
63095;SDS011;49184;55.596;37.770;2022-12-28T00:28:38;14.43;;;7.28;;
63095;SDS011;49184;55.596;37.770;2022-12-28T00:31:05;16.38;;;6.95;;
63095;SDS011;49184;55.596;37.770;2022-12-28T00:33:31;13.40;;;6.70;;
63095;SDS011;49184;55.596;37.770;2022-12-28T00:35:59;14.25;;;8.35;;
63095;SDS011;49184;55.596;37.770;2022-12-28T00:38:27;17.23;;;7.30;;
63095;SDS011;49184;55.596;37.770;2022-12-28T00:40:58;16.77;;;7.72;;
63095;SDS011;49184;55.596;37.770;2022-12-28T00:43:24;20.23;;;7.43;;
63095;SDS011;49184;55.596;37.770;2022-12-28T00:45:51;15.68;;;7.53;;
63095;SDS011;49184;55.596;37.770;2022-12-28T00:48:18;12.90;;;7.40;;
63095;SDS011;49184;55.596;37.770;2022-12-28T00:50:44;11.85;;;6.82;;
63095;SDS011;49184;55.596;37.770;2022-12-28T00:53:11;13.48;;;7.00;;
63095;SDS011;49184;55.596;37.770;2022-12-28T00:55:38;14.73;;;6.97;;
63095;SDS011;49184;55.596;37.770;2022-12-28T00:58:05;11.75;;;6.93;;
63095;SDS011;49184;55.596;37.770;2022-12-28T01:00:32;12.15;;;6.55;;
63095;SDS011;49184;55.596;37.770;2022-12-28T01:02:59;16.35;;;6.63;;
63095;SDS011;49184;55.596;37.770;2022-12-28T01:05:25;11.98;;;6.53;;
63095;SDS011;49184;55.596;37.770;2022-12-28T01:07:52;10.48;;;5.70;;
63095;SDS011;49184;55.596;37.770;2022-12-28T01:10:19;15.45;;;7.30;;
63095;SDS011;49184;55.596;37.770;2022-12-28T01:15:12;17.15;;;6.38;;
63095;SDS011;49184;55.596;37.770;2022-12-28T01:17:39;14.00;;;7.82;;
63095;SDS011;49184;55.596;37.770;2022-12-28T01:20:06;16.70;;;8.20;;
63095;SDS011;49184;55.596;37.770;2022-12-28T01:22:33;17.30;;;8.15;;
63095;SDS011;49184;55.596;37.770;2022-12-28T01:24:59;15.02;;;8.00;;
63095;SDS011;49184;55.596;37.770;2022-12-28T01:27:28;15.30;;;7.57;;
63095;SDS011;49184;55.596;37.770;2022-12-28T01:29:55;17.63;;;8.90;;
63095;SDS011;49184;55.596;37.770;2022-12-28T01:32:21;17.88;;;8.95;;
63095;SDS011;49184;55.596;37.770;2022-12-28T01:34:48;17.75;;;9.43;;
63095;SDS011;49184;55.596;37.770;2022-12-28T01:37:14;16.83;;;8.80;;
63095;SDS011;49184;55.596;37.770;2022-12-28T01:39:40;19.45;;;10.00;;
63095;SDS011;49184;55.596;37.770;2022-12-28T01:42:11;19.45;;;10.45;;
63095;SDS011;49184;55.596;37.770;2022-12-28T01:44:45;19.35;;;9.43;;
63095;SDS011;49184;55.596;37.770;2022-12-28T01:47:19;16.40;;;8.80;;
63095;SDS011;49184;55.596;37.770;2022-12-28T01:49:57;18.25;;;9.40;;
63095;SDS011;49184;55.596;37.770;2022-12-28T01:55:05;18.50;;;9.10;;
63095;SDS011;49184;55.596;37.770;2022-12-28T01:57:38;16.27;;;8.93;;
63095;SDS011;49184;55.596;37.770;2022-12-28T02:00:11;17.25;;;8.60;;
63095;SDS011;49184;55.596;37.770;2022-12-28T02:02:43;17.88;;;8.68;;
63095;SDS011;49184;55.596;37.770;2022-12-28T02:05:17;19.27;;;8.82;;
63095;SDS011;49184;55.596;37.770;2022-12-28T02:10:32;19.75;;;9.02;;
63095;SDS011;49184;55.596;37.770;2022-12-28T02:13:01;14.45;;;7.70;;
63095;SDS011;49184;55.596;37.770;2022-12-28T02:15:29;16.13;;;8.82;;
63095;SDS011;49184;55.596;37.770;2022-12-28T02:17:55;18.63;;;9.00;;
63095;SDS011;49184;55.596;37.770;2022-12-28T02:31:21;18.05;;;9.25;;
63095;SDS011;49184;55.596;37.770;2022-12-28T02:36:52;18.35;;;8.30;;
63095;SDS011;49184;55.596;37.770;2022-12-28T02:39:31;22.67;;;9.65;;
63095;SDS011;49184;55.596;37.770;2022-12-28T02:42:07;19.70;;;9.68;;
63095;SDS011;49184;55.596;37.770;2022-12-28T02:47:19;22.60;;;8.95;;
63095;SDS011;49184;55.596;37.770;2022-12-28T02:50:04;17.13;;;9.18;;
63095;SDS011;49184;55.596;37.770;2022-12-28T02:52:39;18.13;;;9.23;;
63095;SDS011;49184;55.596;37.770;2022-12-28T02:58:04;16.88;;;8.50;;
63095;SDS011;49184;55.596;37.770;2022-12-28T03:03:25;17.20;;;9.30;;
63095;SDS011;49184;55.596;37.770;2022-12-28T03:06:15;17.13;;;8.95;;
63095;SDS011;49184;55.596;37.770;2022-12-28T03:09:51;15.85;;;8.63;;
63095;SDS011;49184;55.596;37.770;2022-12-28T03:12:27;18.17;;;8.70;;
63095;SDS011;49184;55.596;37.770;2022-12-28T03:17:32;17.50;;;8.68;;
63095;SDS011;49184;55.596;37.770;2022-12-28T03:20:24;19.40;;;8.93;;
63095;SDS011;49184;55.596;37.770;2022-12-28T03:23:12;17.05;;;8.93;;
63095;SDS011;49184;55.596;37.770;2022-12-28T03:26:02;16.73;;;9.00;;
63095;SDS011;49184;55.596;37.770;2022-12-28T03:28:50;22.08;;;9.43;;
63095;SDS011;49184;55.596;37.770;2022-12-28T03:31:41;19.65;;;9.55;;
63095;SDS011;49184;55.596;37.770;2022-12-28T03:34:10;19.92;;;9.15;;
63095;SDS011;49184;55.596;37.770;2022-12-28T03:37:04;22.17;;;9.70;;
63095;SDS011;49184;55.596;37.770;2022-12-28T03:39:52;20.80;;;10.07;;
63095;SDS011;49184;55.596;37.770;2022-12-28T03:42:42;23.90;;;10.57;;
63095;SDS011;49184;55.596;37.770;2022-12-28T03:48:15;22.45;;;9.98;;
63095;SDS011;49184;55.596;37.770;2022-12-28T03:50:45;20.45;;;10.80;;
63095;SDS011;49184;55.596;37.770;2022-12-28T03:53:18;24.40;;;11.00;;
63095;SDS011;49184;55.596;37.770;2022-12-28T03:56:03;17.13;;;9.70;;
63095;SDS011;49184;55.596;37.770;2022-12-28T03:58:39;17.60;;;9.30;;
63095;SDS011;49184;55.596;37.770;2022-12-28T04:01:08;22.58;;;9.73;;
63095;SDS011;49184;55.596;37.770;2022-12-28T04:03:37;19.75;;;9.48;;
63095;SDS011;49184;55.596;37.770;2022-12-28T04:06:05;21.52;;;9.82;;
63095;SDS011;49184;55.596;37.770;2022-12-28T04:08:33;18.13;;;9.35;;
63095;SDS011;49184;55.596;37.770;2022-12-28T04:13:29;14.80;;;8.32;;
63095;SDS011;49184;55.596;37.770;2022-12-28T04:16:15;18.33;;;9.45;;
63095;SDS011;49184;55.596;37.770;2022-12-28T04:18:42;18.65;;;9.50;;
63095;SDS011;49184;55.596;37.770;2022-12-28T04:21:10;17.92;;;8.77;;
63095;SDS011;49184;55.596;37.770;2022-12-28T04:23:40;18.75;;;9.73;;
63095;SDS011;49184;55.596;37.770;2022-12-28T04:26:25;15.75;;;7.97;;
63095;SDS011;49184;55.596;37.770;2022-12-28T04:28:53;18.08;;;8.93;;
63095;SDS011;49184;55.596;37.770;2022-12-28T04:31:54;18.48;;;9.30;;
63095;SDS011;49184;55.596;37.770;2022-12-28T04:34:21;17.15;;;8.50;;
63095;SDS011;49184;55.596;37.770;2022-12-28T04:36:56;18.88;;;9.05;;
63095;SDS011;49184;55.596;37.770;2022-12-28T04:39:22;16.75;;;8.98;;
63095;SDS011;49184;55.596;37.770;2022-12-28T04:41:51;17.33;;;9.10;;
63095;SDS011;49184;55.596;37.770;2022-12-28T04:44:21;17.63;;;9.15;;
63095;SDS011;49184;55.596;37.770;2022-12-28T04:46:50;19.77;;;9.23;;
63095;SDS011;49184;55.596;37.770;2022-12-28T04:49:16;21.13;;;10.90;;
63095;SDS011;49184;55.596;37.770;2022-12-28T04:51:42;20.65;;;10.23;;
63095;SDS011;49184;55.596;37.770;2022-12-28T04:54:12;18.25;;;9.63;;
63095;SDS011;49184;55.596;37.770;2022-12-28T04:56:40;20.77;;;10.55;;
63095;SDS011;49184;55.596;37.770;2022-12-28T04:59:06;25.08;;;11.05;;
63095;SDS011;49184;55.596;37.770;2022-12-28T05:03:59;23.77;;;11.98;;
63095;SDS011;49184;55.596;37.770;2022-12-28T05:06:26;24.25;;;13.38;;
63095;SDS011;49184;55.596;37.770;2022-12-28T05:08:54;28.90;;;14.18;;
63095;SDS011;49184;55.596;37.770;2022-12-28T05:11:25;27.35;;;13.73;;
63095;SDS011;49184;55.596;37.770;2022-12-28T05:13:54;34.28;;;15.13;;
63095;SDS011;49184;55.596;37.770;2022-12-28T05:16:21;28.05;;;14.52;;
63095;SDS011;49184;55.596;37.770;2022-12-28T05:18:56;27.27;;;14.68;;
63095;SDS011;49184;55.596;37.770;2022-12-28T05:21:23;28.52;;;14.35;;
63095;SDS011;49184;55.596;37.770;2022-12-28T05:23:52;26.67;;;14.52;;
63095;SDS011;49184;55.596;37.770;2022-12-28T05:26:26;32.47;;;15.60;;
63095;SDS011;49184;55.596;37.770;2022-12-28T05:28:59;33.20;;;16.55;;
63095;SDS011;49184;55.596;37.770;2022-12-28T05:31:25;28.50;;;14.73;;
63095;SDS011;49184;55.596;37.770;2022-12-28T05:33:52;31.27;;;15.55;;
63095;SDS011;49184;55.596;37.770;2022-12-28T05:36:23;30.20;;;14.68;;
63095;SDS011;49184;55.596;37.770;2022-12-28T05:38:52;29.33;;;15.27;;
63095;SDS011;49184;55.596;37.770;2022-12-28T05:41:31;31.55;;;15.52;;
63095;SDS011;49184;55.596;37.770;2022-12-28T05:46:48;24.80;;;13.02;;
63095;SDS011;49184;55.596;37.770;2022-12-28T05:49:14;17.13;;;10.07;;
63095;SDS011;49184;55.596;37.770;2022-12-28T05:51:40;17.48;;;10.10;;
63095;SDS011;49184;55.596;37.770;2022-12-28T05:54:06;18.02;;;10.50;;
63095;SDS011;49184;55.596;37.770;2022-12-28T05:56:33;17.35;;;9.68;;
63095;SDS011;49184;55.596;37.770;2022-12-28T05:59:01;21.92;;;10.68;;
63095;SDS011;49184;55.596;37.770;2022-12-28T06:01:36;20.00;;;10.55;;
63095;SDS011;49184;55.596;37.770;2022-12-28T06:04:05;19.60;;;10.48;;
63095;SDS011;49184;55.596;37.770;2022-12-28T06:06:33;23.90;;;10.60;;
63095;SDS011;49184;55.596;37.770;2022-12-28T06:12:19;20.40;;;10.88;;
63095;SDS011;49184;55.596;37.770;2022-12-28T06:14:46;20.48;;;11.13;;
63095;SDS011;49184;55.596;37.770;2022-12-28T06:17:12;23.80;;;10.68;;
63095;SDS011;49184;55.596;37.770;2022-12-28T06:19:38;18.55;;;10.40;;
63095;SDS011;49184;55.596;37.770;2022-12-28T06:22:05;21.05;;;10.77;;
63095;SDS011;49184;55.596;37.770;2022-12-28T06:24:31;21.40;;;11.75;;
63095;SDS011;49184;55.596;37.770;2022-12-28T06:26:57;20.52;;;11.32;;
63095;SDS011;49184;55.596;37.770;2022-12-28T06:34:57;21.90;;;11.20;;
63095;SDS011;49184;55.596;37.770;2022-12-28T06:37:33;20.63;;;10.57;;
63095;SDS011;49184;55.596;37.770;2022-12-28T06:40:02;19.08;;;11.32;;
63095;SDS011;49184;55.596;37.770;2022-12-28T06:42:29;23.38;;;11.18;;
63095;SDS011;49184;55.596;37.770;2022-12-28T06:44:55;20.83;;;10.38;;
63095;SDS011;49184;55.596;37.770;2022-12-28T06:47:21;18.98;;;10.32;;
63095;SDS011;49184;55.596;37.770;2022-12-28T06:49:50;21.35;;;11.77;;
63095;SDS011;49184;55.596;37.770;2022-12-28T06:52:16;22.13;;;11.43;;
63095;SDS011;49184;55.596;37.770;2022-12-28T06:57:34;25.90;;;14.48;;
63095;SDS011;49184;55.596;37.770;2022-12-28T07:00:09;22.27;;;11.68;;
63095;SDS011;49184;55.596;37.770;2022-12-28T07:02:56;21.63;;;11.98;;
63095;SDS011;49184;55.596;37.770;2022-12-28T07:05:22;20.05;;;10.93;;
63095;SDS011;49184;55.596;37.770;2022-12-28T07:07:49;21.95;;;11.80;;
63095;SDS011;49184;55.596;37.770;2022-12-28T07:10:16;20.80;;;10.88;;
63095;SDS011;49184;55.596;37.770;2022-12-28T07:12:42;21.10;;;11.18;;
63095;SDS011;49184;55.596;37.770;2022-12-28T07:15:08;19.60;;;10.85;;
63095;SDS011;49184;55.596;37.770;2022-12-28T07:17:34;23.17;;;12.43;;
63095;SDS011;49184;55.596;37.770;2022-12-28T07:20:01;26.10;;;12.15;;
63095;SDS011;49184;55.596;37.770;2022-12-28T07:22:28;24.90;;;12.43;;
63095;SDS011;49184;55.596;37.770;2022-12-28T07:27:54;32.90;;;13.35;;
63095;SDS011;49184;55.596;37.770;2022-12-28T07:30:21;23.95;;;13.80;;
63095;SDS011;49184;55.596;37.770;2022-12-28T07:32:56;28.80;;;14.82;;
63095;SDS011;49184;55.596;37.770;2022-12-28T07:35:23;30.45;;;14.02;;
63095;SDS011;49184;55.596;37.770;2022-12-28T07:37:49;28.50;;;14.23;;
63095;SDS011;49184;55.596;37.770;2022-12-28T07:40:15;29.83;;;13.40;;
63095;SDS011;49184;55.596;37.770;2022-12-28T07:43:07;23.92;;;12.93;;
63095;SDS011;49184;55.596;37.770;2022-12-28T07:55:11;28.10;;;13.43;;
63095;SDS011;49184;55.596;37.770;2022-12-28T07:57:38;27.42;;;14.30;;
63095;SDS011;49184;55.596;37.770;2022-12-28T08:00:04;25.92;;;14.25;;
63095;SDS011;49184;55.596;37.770;2022-12-28T08:02:59;23.52;;;12.75;;
63095;SDS011;49184;55.596;37.770;2022-12-28T08:05:32;26.45;;;12.88;;
63095;SDS011;49184;55.596;37.770;2022-12-28T08:10:29;27.33;;;12.98;;
63095;SDS011;49184;55.596;37.770;2022-12-28T08:12:57;28.30;;;12.75;;
63095;SDS011;49184;55.596;37.770;2022-12-28T08:15:24;25.95;;;12.65;;
63095;SDS011;49184;55.596;37.770;2022-12-28T08:17:52;30.90;;;14.70;;
63095;SDS011;49184;55.596;37.770;2022-12-28T08:20:30;31.92;;;14.50;;
63095;SDS011;49184;55.596;37.770;2022-12-28T08:22:56;32.42;;;15.13;;
63095;SDS011;49184;55.596;37.770;2022-12-28T08:25:22;36.00;;;13.82;;
63095;SDS011;49184;55.596;37.770;2022-12-28T08:27:48;33.75;;;14.10;;
63095;SDS011;49184;55.596;37.770;2022-12-28T08:32:41;34.10;;;13.38;;
63095;SDS011;49184;55.596;37.770;2022-12-28T08:35:09;27.90;;;12.73;;
63095;SDS011;49184;55.596;37.770;2022-12-28T08:37:35;28.38;;;12.57;;
63095;SDS011;49184;55.596;37.770;2022-12-28T08:40:04;24.75;;;12.35;;
63095;SDS011;49184;55.596;37.770;2022-12-28T08:45:25;27.20;;;13.23;;
63095;SDS011;49184;55.596;37.770;2022-12-28T08:47:52;34.97;;;14.68;;
63095;SDS011;49184;55.596;37.770;2022-12-28T08:50:18;31.80;;;12.88;;
63095;SDS011;49184;55.596;37.770;2022-12-28T08:52:45;26.23;;;13.40;;
63095;SDS011;49184;55.596;37.770;2022-12-28T08:55:11;30.40;;;13.07;;
63095;SDS011;49184;55.596;37.770;2022-12-28T08:57:41;31.15;;;13.55;;
63095;SDS011;49184;55.596;37.770;2022-12-28T09:00:07;29.90;;;14.75;;
63095;SDS011;49184;55.596;37.770;2022-12-28T09:05:02;32.10;;;14.20;;
63095;SDS011;49184;55.596;37.770;2022-12-28T09:07:28;36.13;;;15.20;;
63095;SDS011;49184;55.596;37.770;2022-12-28T09:10:04;31.02;;;14.57;;
63095;SDS011;49184;55.596;37.770;2022-12-28T09:12:32;45.90;;;17.08;;
63095;SDS011;49184;55.596;37.770;2022-12-28T09:14:58;41.88;;;15.57;;
63095;SDS011;49184;55.596;37.770;2022-12-28T09:17:26;49.92;;;16.00;;
63095;SDS011;49184;55.596;37.770;2022-12-28T09:19:53;43.95;;;15.98;;
63095;SDS011;49184;55.596;37.770;2022-12-28T09:22:20;31.63;;;15.65;;
63095;SDS011;49184;55.596;37.770;2022-12-28T09:24:50;47.53;;;16.73;;
63095;SDS011;49184;55.596;37.770;2022-12-28T09:27:18;43.55;;;17.00;;
63095;SDS011;49184;55.596;37.770;2022-12-28T09:29:44;44.95;;;15.77;;
63095;SDS011;49184;55.596;37.770;2022-12-28T09:32:10;33.83;;;13.02;;
63095;SDS011;49184;55.596;37.770;2022-12-28T09:35:01;26.65;;;10.20;;
63095;SDS011;49184;55.596;37.770;2022-12-28T09:37:29;26.35;;;11.02;;
63095;SDS011;49184;55.596;37.770;2022-12-28T09:39:59;40.42;;;13.32;;
63095;SDS011;49184;55.596;37.770;2022-12-28T09:42:25;33.92;;;12.63;;
63095;SDS011;49184;55.596;37.770;2022-12-28T09:45:03;34.40;;;14.10;;
63095;SDS011;49184;55.596;37.770;2022-12-28T09:50:18;27.85;;;14.30;;
63095;SDS011;49184;55.596;37.770;2022-12-28T09:53:10;28.10;;;14.15;;
63095;SDS011;49184;55.596;37.770;2022-12-28T09:56:17;23.80;;;11.50;;
63095;SDS011;49184;55.596;37.770;2022-12-28T09:58:51;27.50;;;11.95;;
63095;SDS011;49184;55.596;37.770;2022-12-28T10:01:22;28.67;;;10.38;;
63095;SDS011;49184;55.596;37.770;2022-12-28T10:03:55;23.80;;;10.68;;
63095;SDS011;49184;55.596;37.770;2022-12-28T10:06:26;27.60;;;10.80;;
63095;SDS011;49184;55.596;37.770;2022-12-28T10:08:55;18.05;;;8.60;;
63095;SDS011;49184;55.596;37.770;2022-12-28T10:11:33;24.98;;;10.40;;
63095;SDS011;49184;55.596;37.770;2022-12-28T10:14:15;21.95;;;11.30;;
63095;SDS011;49184;55.596;37.770;2022-12-28T10:16:47;21.52;;;11.20;;
63095;SDS011;49184;55.596;37.770;2022-12-28T10:19:18;21.75;;;10.52;;
63095;SDS011;49184;55.596;37.770;2022-12-28T10:22:00;21.83;;;11.20;;
63095;SDS011;49184;55.596;37.770;2022-12-28T10:24:28;22.90;;;11.70;;
63095;SDS011;49184;55.596;37.770;2022-12-28T10:26:56;26.17;;;11.38;;
63095;SDS011;49184;55.596;37.770;2022-12-28T10:29:24;26.67;;;13.25;;
63095;SDS011;49184;55.596;37.770;2022-12-28T10:34:29;22.33;;;11.90;;
63095;SDS011;49184;55.596;37.770;2022-12-28T10:37:12;26.33;;;12.48;;
63095;SDS011;49184;55.596;37.770;2022-12-28T10:39:46;25.73;;;12.27;;
63095;SDS011;49184;55.596;37.770;2022-12-28T10:42:26;24.90;;;12.45;;
63095;SDS011;49184;55.596;37.770;2022-12-28T10:45:00;24.00;;;12.77;;
63095;SDS011;49184;55.596;37.770;2022-12-28T10:47:33;21.73;;;12.45;;
63095;SDS011;49184;55.596;37.770;2022-12-28T10:50:35;23.70;;;12.90;;
63095;SDS011;49184;55.596;37.770;2022-12-28T10:53:07;23.70;;;11.80;;
63095;SDS011;49184;55.596;37.770;2022-12-28T10:55:43;23.38;;;11.40;;
63095;SDS011;49184;55.596;37.770;2022-12-28T10:58:19;23.50;;;11.73;;
63095;SDS011;49184;55.596;37.770;2022-12-28T11:00:57;23.20;;;13.13;;
63095;SDS011;49184;55.596;37.770;2022-12-28T11:03:31;32.08;;;13.82;;
63095;SDS011;49184;55.596;37.770;2022-12-28T11:06:15;32.07;;;15.40;;
63095;SDS011;49184;55.596;37.770;2022-12-28T11:08:45;30.25;;;15.35;;
63095;SDS011;49184;55.596;37.770;2022-12-28T11:11:25;35.45;;;15.02;;
63095;SDS011;49184;55.596;37.770;2022-12-28T11:14:01;33.23;;;16.73;;
63095;SDS011;49184;55.596;37.770;2022-12-28T11:16:40;39.53;;;15.73;;
63095;SDS011;49184;55.596;37.770;2022-12-28T11:19:10;34.08;;;16.77;;
63095;SDS011;49184;55.596;37.770;2022-12-28T11:21:37;34.78;;;16.13;;
63095;SDS011;49184;55.596;37.770;2022-12-28T11:24:10;32.42;;;16.45;;
63095;SDS011;49184;55.596;37.770;2022-12-28T11:27:04;35.55;;;15.63;;
63095;SDS011;49184;55.596;37.770;2022-12-28T11:29:31;31.77;;;16.08;;
63095;SDS011;49184;55.596;37.770;2022-12-28T11:31:59;36.67;;;15.77;;
63095;SDS011;49184;55.596;37.770;2022-12-28T11:34:30;34.85;;;16.70;;
63095;SDS011;49184;55.596;37.770;2022-12-28T11:36:56;33.13;;;16.23;;
63095;SDS011;49184;55.596;37.770;2022-12-28T11:41:54;96.93;;;30.00;;
63095;SDS011;49184;55.596;37.770;2022-12-28T11:44:22;99.63;;;31.40;;
63095;SDS011;49184;55.596;37.770;2022-12-28T11:49:41;75.72;;;27.55;;
63095;SDS011;49184;55.596;37.770;2022-12-28T11:54:54;69.80;;;26.67;;
63095;SDS011;49184;55.596;37.770;2022-12-28T11:57:35;60.72;;;22.92;;
63095;SDS011;49184;55.596;37.770;2022-12-28T12:02:46;42.95;;;18.65;;
63095;SDS011;49184;55.596;37.770;2022-12-28T12:10:39;38.10;;;18.70;;
63095;SDS011;49184;55.596;37.770;2022-12-28T12:13:53;37.65;;;17.77;;
63095;SDS011;49184;55.596;37.770;2022-12-28T12:16:21;48.60;;;19.40;;
63095;SDS011;49184;55.596;37.770;2022-12-28T12:18:56;34.90;;;17.73;;
63095;SDS011;49184;55.596;37.770;2022-12-28T12:24:43;38.75;;;16.40;;
63095;SDS011;49184;55.596;37.770;2022-12-28T12:27:18;34.53;;;18.27;;
63095;SDS011;49184;55.596;37.770;2022-12-28T12:30:02;34.50;;;18.00;;
63095;SDS011;49184;55.596;37.770;2022-12-28T12:32:54;36.75;;;17.65;;
63095;SDS011;49184;55.596;37.770;2022-12-28T12:35:48;34.17;;;16.77;;
63095;SDS011;49184;55.596;37.770;2022-12-28T12:44:08;34.35;;;17.35;;
63095;SDS011;49184;55.596;37.770;2022-12-28T12:49:30;37.03;;;17.75;;
63095;SDS011;49184;55.596;37.770;2022-12-28T12:58:31;29.90;;;16.30;;
63095;SDS011;49184;55.596;37.770;2022-12-28T13:01:22;35.13;;;16.00;;
63095;SDS011;49184;55.596;37.770;2022-12-28T13:04:24;34.50;;;15.40;;
63095;SDS011;49184;55.596;37.770;2022-12-28T13:07:01;28.73;;;13.88;;
63095;SDS011;49184;55.596;37.770;2022-12-28T13:09:53;35.35;;;14.10;;
63095;SDS011;49184;55.596;37.770;2022-12-28T13:12:24;26.27;;;12.93;;
63095;SDS011;49184;55.596;37.770;2022-12-28T13:15:00;29.55;;;14.43;;
63095;SDS011;49184;55.596;37.770;2022-12-28T13:17:30;34.15;;;13.48;;
63095;SDS011;49184;55.596;37.770;2022-12-28T13:23:28;25.70;;;12.20;;
63095;SDS011;49184;55.596;37.770;2022-12-28T13:25:58;22.10;;;12.43;;
63095;SDS011;49184;55.596;37.770;2022-12-28T13:37:35;20.67;;;10.73;;
63095;SDS011;49184;55.596;37.770;2022-12-28T13:40:20;27.13;;;11.95;;
63095;SDS011;49184;55.596;37.770;2022-12-28T13:45:28;34.15;;;11.85;;
63095;SDS011;49184;55.596;37.770;2022-12-28T13:48:03;21.50;;;11.30;;
63095;SDS011;49184;55.596;37.770;2022-12-28T13:56:32;22.45;;;10.18;;
63095;SDS011;49184;55.596;37.770;2022-12-28T14:02:35;27.73;;;11.25;;
63095;SDS011;49184;55.596;37.770;2022-12-28T14:05:06;25.17;;;12.48;;
63095;SDS011;49184;55.596;37.770;2022-12-28T14:07:47;20.52;;;10.13;;
63095;SDS011;49184;55.596;37.770;2022-12-28T14:10:23;21.70;;;10.02;;
63095;SDS011;49184;55.596;37.770;2022-12-28T14:12:52;23.60;;;11.57;;
63095;SDS011;49184;55.596;37.770;2022-12-28T14:15:20;21.20;;;10.73;;
63095;SDS011;49184;55.596;37.770;2022-12-28T14:17:49;21.90;;;10.65;;
63095;SDS011;49184;55.596;37.770;2022-12-28T14:20:31;21.73;;;9.68;;
63095;SDS011;49184;55.596;37.770;2022-12-28T14:23:32;26.20;;;11.48;;
63095;SDS011;49184;55.596;37.770;2022-12-28T14:26:07;19.85;;;10.27;;
63095;SDS011;49184;55.596;37.770;2022-12-28T14:28:59;23.10;;;10.80;;
63095;SDS011;49184;55.596;37.770;2022-12-28T14:31:27;20.25;;;10.40;;
63095;SDS011;49184;55.596;37.770;2022-12-28T14:34:03;20.60;;;10.05;;
63095;SDS011;49184;55.596;37.770;2022-12-28T14:36:52;23.10;;;11.10;;
63095;SDS011;49184;55.596;37.770;2022-12-28T14:39:30;25.10;;;10.63;;
63095;SDS011;49184;55.596;37.770;2022-12-28T14:42:19;22.10;;;9.73;;
63095;SDS011;49184;55.596;37.770;2022-12-28T14:44:51;16.83;;;9.32;;
63095;SDS011;49184;55.596;37.770;2022-12-28T14:53:25;17.83;;;9.20;;
63095;SDS011;49184;55.596;37.770;2022-12-28T14:56:02;18.90;;;9.30;;
63095;SDS011;49184;55.596;37.770;2022-12-28T14:58:54;16.30;;;9.65;;
63095;SDS011;49184;55.596;37.770;2022-12-28T15:04:26;18.17;;;9.65;;
63095;SDS011;49184;55.596;37.770;2022-12-28T15:07:03;23.27;;;10.07;;
63095;SDS011;49184;55.596;37.770;2022-12-28T15:09:35;19.52;;;10.13;;
63095;SDS011;49184;55.596;37.770;2022-12-28T15:12:36;16.20;;;8.77;;
63095;SDS011;49184;55.596;37.770;2022-12-28T15:15:01;19.15;;;8.85;;
63095;SDS011;49184;55.596;37.770;2022-12-28T15:17:32;23.20;;;9.63;;
63095;SDS011;49184;55.596;37.770;2022-12-28T15:19:58;19.55;;;9.02;;
63095;SDS011;49184;55.596;37.770;2022-12-28T15:26:05;16.15;;;8.32;;
63095;SDS011;49184;55.596;37.770;2022-12-28T15:28:54;15.88;;;8.65;;
63095;SDS011;49184;55.596;37.770;2022-12-28T15:31:21;18.10;;;8.55;;
63095;SDS011;49184;55.596;37.770;2022-12-28T15:34:15;13.60;;;7.88;;
63095;SDS011;49184;55.596;37.770;2022-12-28T15:37:07;17.73;;;8.45;;
63095;SDS011;49184;55.596;37.770;2022-12-28T15:39:39;15.68;;;8.27;;
63095;SDS011;49184;55.596;37.770;2022-12-28T15:42:16;18.17;;;8.68;;
63095;SDS011;49184;55.596;37.770;2022-12-28T15:44:43;19.30;;;8.73;;
63095;SDS011;49184;55.596;37.770;2022-12-28T15:49:50;18.90;;;8.10;;
63095;SDS011;49184;55.596;37.770;2022-12-28T15:52:18;15.60;;;8.43;;
63095;SDS011;49184;55.596;37.770;2022-12-28T15:54:46;20.13;;;9.02;;
63095;SDS011;49184;55.596;37.770;2022-12-28T15:57:18;14.98;;;8.70;;
63095;SDS011;49184;55.596;37.770;2022-12-28T15:59:45;14.37;;;8.63;;
63095;SDS011;49184;55.596;37.770;2022-12-28T16:02:12;14.70;;;8.18;;
63095;SDS011;49184;55.596;37.770;2022-12-28T16:04:39;16.77;;;8.82;;
63095;SDS011;49184;55.596;37.770;2022-12-28T16:07:09;16.25;;;8.38;;
63095;SDS011;49184;55.596;37.770;2022-12-28T16:09:44;15.07;;;8.85;;
63095;SDS011;49184;55.596;37.770;2022-12-28T16:12:10;17.63;;;9.10;;
63095;SDS011;49184;55.596;37.770;2022-12-28T16:14:45;15.30;;;8.65;;
63095;SDS011;49184;55.596;37.770;2022-12-28T16:17:11;19.85;;;8.77;;
63095;SDS011;49184;55.596;37.770;2022-12-28T16:19:39;16.70;;;8.80;;
63095;SDS011;49184;55.596;37.770;2022-12-28T16:22:11;15.75;;;8.65;;
63095;SDS011;49184;55.596;37.770;2022-12-28T16:24:51;18.30;;;8.57;;
63095;SDS011;49184;55.596;37.770;2022-12-28T16:27:17;18.80;;;8.70;;
63095;SDS011;49184;55.596;37.770;2022-12-28T16:30:12;22.63;;;9.13;;
63095;SDS011;49184;55.596;37.770;2022-12-28T16:32:45;21.27;;;9.57;;
63095;SDS011;49184;55.596;37.770;2022-12-28T16:35:14;24.83;;;8.95;;
63095;SDS011;49184;55.596;37.770;2022-12-28T16:37:43;21.50;;;9.02;;
63095;SDS011;49184;55.596;37.770;2022-12-28T16:42:38;18.67;;;9.77;;
63095;SDS011;49184;55.596;37.770;2022-12-28T16:45:12;20.90;;;8.93;;
63095;SDS011;49184;55.596;37.770;2022-12-28T16:47:51;17.55;;;8.35;;
63095;SDS011;49184;55.596;37.770;2022-12-28T16:53:33;13.60;;;7.35;;
63095;SDS011;49184;55.596;37.770;2022-12-28T16:56:04;15.73;;;7.60;;
63095;SDS011;49184;55.596;37.770;2022-12-28T16:58:35;11.77;;;7.25;;
63095;SDS011;49184;55.596;37.770;2022-12-28T17:01:06;14.82;;;6.85;;
63095;SDS011;49184;55.596;37.770;2022-12-28T17:03:35;12.40;;;6.97;;
63095;SDS011;49184;55.596;37.770;2022-12-28T17:06:05;18.45;;;8.10;;
63095;SDS011;49184;55.596;37.770;2022-12-28T17:09:24;13.27;;;7.05;;
63095;SDS011;49184;55.596;37.770;2022-12-28T17:11:58;19.73;;;7.22;;
63095;SDS011;49184;55.596;37.770;2022-12-28T17:14:28;15.00;;;7.18;;
63095;SDS011;49184;55.596;37.770;2022-12-28T17:16:57;14.80;;;6.93;;
63095;SDS011;49184;55.596;37.770;2022-12-28T17:19:26;14.60;;;6.97;;
63095;SDS011;49184;55.596;37.770;2022-12-28T17:22:01;12.52;;;6.75;;
63095;SDS011;49184;55.596;37.770;2022-12-28T17:24:30;15.68;;;6.82;;
63095;SDS011;49184;55.596;37.770;2022-12-28T17:26:57;13.05;;;6.28;;
63095;SDS011;49184;55.596;37.770;2022-12-28T17:29:36;14.18;;;6.95;;